Time;durP1;ratioP1;P1;durP2;ratioP2;P2;SDS_P1;SDS_P2;PMS_P1;PMS_P2;Temp;Humidity;BMP_temperature;BMP_pressure;BME280_temperature;BME280_humidity;BME280_pressure;Samples;Min_cycle;Max_cycle;Signal;HPM_P1;HPM_P2
2021/12/06 00:00:43;;;;;;;21.20;16.88;;;;;;;-146.48;100.00;60459.00;5347628;27;20067;-71
2021/12/06 00:03:21;;;;;;;24.63;18.60;;;;;;;-146.48;100.00;60459.00;5347502;27;20019;-71
2021/12/06 00:05:52;;;;;;;22.42;17.40;;;;;;;-146.48;100.00;60459.00;5345873;27;20031;-71
2021/12/06 00:08:23;;;;;;;24.30;18.55;;;;;;;-146.48;100.00;60459.00;5347027;27;20027;-70
2021/12/06 00:10:55;;;;;;;21.05;17.17;;;;;;;-146.48;100.00;60459.00;5346554;27;20033;-72
2021/12/06 00:13:27;;;;;;;22.60;17.05;;;;;;;-146.48;100.00;60459.00;5346178;27;20102;-71
2021/12/06 00:16:01;;;;;;;25.48;17.67;;;;;;;-146.48;100.00;60459.00;5346405;27;20489;-71
2021/12/06 00:18:33;;;;;;;24.05;17.77;;;;;;;-146.48;100.00;60459.00;5346800;27;20027;-71
2021/12/06 00:21:05;;;;;;;23.90;17.67;;;;;;;-146.48;100.00;60459.00;5345412;27;20084;-70
2021/12/06 00:23:37;;;;;;;22.38;18.23;;;;;;;-146.48;100.00;60459.00;5346564;27;20114;-71
2021/12/06 00:26:09;;;;;;;25.10;19.27;;;;;;;-146.48;100.00;60459.00;5346196;27;20481;-71
2021/12/06 00:28:43;;;;;;;24.67;18.98;;;;;;;-146.48;100.00;60459.00;5346136;27;20034;-71
2021/12/06 00:31:15;;;;;;;22.88;17.92;;;;;;;-146.48;100.00;60459.00;5346621;27;20023;-71
2021/12/06 00:33:52;;;;;;;23.38;17.65;;;;;;;-146.48;100.00;60459.00;5345325;27;20030;-71
2021/12/06 00:36:28;;;;;;;24.67;18.83;;;;;;;-146.48;100.00;60459.00;5346475;27;20038;-71
2021/12/06 00:39:02;;;;;;;22.63;17.58;;;;;;;-146.48;100.00;60459.00;5345661;27;20028;-71
2021/12/06 00:41:34;;;;;;;22.75;17.35;;;;;;;-146.48;100.00;60459.00;5345593;27;20031;-72
2021/12/06 00:44:07;;;;;;;22.55;17.10;;;;;;;-146.48;100.00;60459.00;5345984;27;20031;-71
2021/12/06 00:46:39;;;;;;;23.90;18.58;;;;;;;-146.48;100.00;60459.00;5345802;27;20130;-71
2021/12/06 00:49:11;;;;;;;23.83;18.25;;;;;;;-146.48;100.00;60459.00;5345651;27;20046;-70
2021/12/06 00:51:42;;;;;;;23.33;18.63;;;;;;;-146.48;100.00;60459.00;5345607;27;20101;-71
2021/12/06 00:54:15;;;;;;;22.00;17.92;;;;;;;-146.48;100.00;60459.00;5345342;27;20034;-70
2021/12/06 00:56:46;;;;;;;23.67;19.60;;;;;;;-146.48;100.00;60459.00;5345523;27;20023;-71
2021/12/06 00:59:18;;;;;;;24.30;19.65;;;;;;;-146.48;100.00;60459.00;5346282;27;20450;-70
2021/12/06 01:01:51;;;;;;;23.75;18.10;;;;;;;-146.48;100.00;60459.00;5344843;27;20027;-71
2021/12/06 01:04:22;;;;;;;24.73;19.48;;;;;;;-146.48;100.00;60459.00;5345971;27;20027;-71
2021/12/06 01:06:54;;;;;;;23.38;18.48;;;;;;;-146.48;100.00;60459.00;5345183;27;20038;-71
2021/12/06 01:09:25;;;;;;;25.60;19.13;;;;;;;-146.48;100.00;60459.00;5345128;27;20030;-71
2021/12/06 01:11:56;;;;;;;26.33;18.67;;;;;;;-146.48;100.00;60459.00;5345371;27;20038;-71
2021/12/06 01:14:28;;;;;;;25.23;19.35;;;;;;;-146.48;100.00;60459.00;5346013;27;20386;-71
2021/12/06 01:16:59;;;;;;;27.73;19.67;;;;;;;-146.48;100.00;60459.00;5344400;27;20223;-71
2021/12/06 01:19:31;;;;;;;25.52;20.30;;;;;;;-146.48;100.00;60459.00;5345963;27;20024;-71
2021/12/06 01:22:16;;;;;;;25.02;19.48;;;;;;;-146.48;100.00;60459.00;5345220;27;20087;-70
2021/12/06 01:24:55;;;;;;;26.83;19.70;;;;;;;-146.48;100.00;60459.00;5345110;27;20023;-71
2021/12/06 01:30:18;;;;;;;25.83;19.38;;;;;;;-146.48;100.00;60459.00;5344267;27;20110;-71
2021/12/06 01:41:20;;;;;;;22.77;18.55;;;;;;;-146.48;100.00;60459.00;5345873;27;20035;-71
2021/12/06 01:44:12;;;;;;;24.90;18.50;;;;;;;-146.48;100.00;60459.00;5343817;27;20019;-71
2021/12/06 01:46:51;;;;;;;24.45;18.20;;;;;;;-146.48;100.00;60459.00;5344701;27;20047;-71
2021/12/06 01:49:26;;;;;;;25.13;19.88;;;;;;;-146.48;100.00;60459.00;5344839;27;20339;-71
2021/12/06 01:51:59;;;;;;;25.88;18.73;;;;;;;-146.48;100.00;60459.00;5343737;27;20068;-71
2021/12/06 01:54:31;;;;;;;24.50;19.45;;;;;;;-146.48;100.00;60459.00;5345131;27;20126;-71
2021/12/06 01:57:02;;;;;;;27.67;21.25;;;;;;;-146.48;100.00;60459.00;5344650;28;20100;-72
2021/12/06 01:59:35;;;;;;;28.40;20.48;;;;;;;-146.48;100.00;60459.00;5344459;28;20061;-71
2021/12/06 02:02:07;;;;;;;24.77;20.17;;;;;;;-146.48;100.00;60459.00;5344592;27;20428;-71
2021/12/06 02:04:40;;;;;;;25.33;20.17;;;;;;;-146.48;100.00;60459.00;5343652;27;20027;-71
2021/12/06 02:07:19;;;;;;;24.48;18.55;;;;;;;-146.48;100.00;60459.00;5344932;27;20199;-71
2021/12/06 02:09:51;;;;;;;;;;;;;;;-146.48;100.00;60459.00;5344884;28;20031;-71
2021/12/06 02:12:29;;;;;;;23.05;18.92;;;;;;;-146.48;100.00;60459.00;5344186;28;19915;-71
2021/12/06 02:15:06;;;;;;;25.40;18.63;;;;;;;-146.48;100.00;60459.00;5344470;28;20027;-71
2021/12/06 02:17:42;;;;;;;22.75;19.00;;;;;;;-146.48;100.00;60459.00;5344373;28;20027;-72
2021/12/06 02:20:24;;;;;;;28.73;19.52;;;;;;;-146.48;100.00;60459.00;5344030;27;20027;-72
2021/12/06 02:22:57;;;;;;;24.70;19.45;;;;;;;-146.48;100.00;60459.00;5344426;28;20026;-71
2021/12/06 02:25:28;;;;;;;26.25;20.30;;;;;;;-146.48;100.00;60459.00;5343992;28;20101;-71
2021/12/06 02:28:00;;;;;;;24.23;19.38;;;;;;;-146.48;100.00;60459.00;5344098;27;20059;-71
2021/12/06 02:30:32;;;;;;;25.52;19.25;;;;;;;-146.48;100.00;60459.00;5345072;28;20031;-70
2021/12/06 02:33:03;;;;;;;26.95;19.10;;;;;;;-146.48;100.00;60459.00;5343516;27;20106;-71
2021/12/06 02:35:35;;;;;;;26.27;20.33;;;;;;;-146.48;100.00;60459.00;5344677;28;20030;-71
2021/12/06 02:38:07;;;;;;;24.77;19.83;;;;;;;-146.48;100.00;60459.00;5344040;27;20355;-70
2021/12/06 02:40:40;;;;;;;24.17;18.52;;;;;;;-146.48;100.00;60459.00;5343589;28;20031;-71
2021/12/06 02:43:13;;;;;;;26.50;19.83;;;;;;;-146.48;100.00;60459.00;5344727;28;20484;-70
2021/12/06 02:45:45;;;;;;;26.75;19.63;;;;;;;-146.48;100.00;60459.00;5344099;27;20385;-71
2021/12/06 02:48:16;;;;;;;24.92;19.88;;;;;;;-146.48;100.00;60459.00;5344100;27;20096;-71
2021/12/06 02:50:57;;;;;;;23.45;18.92;;;;;;;-146.48;100.00;60459.00;5344021;27;20054;-71
2021/12/06 02:53:31;;;;;;;23.38;19.35;;;;;;;-146.48;100.00;60459.00;5344616;28;20039;-71
2021/12/06 02:56:17;;;;;;;26.85;20.90;;;;;;;-146.48;100.00;60459.00;5343847;27;20023;-71
2021/12/06 02:58:58;;;;;;;27.40;20.17;;;;;;;-146.48;100.00;60459.00;5343788;28;20023;-71
2021/12/06 03:01:42;;;;;;;27.45;20.77;;;;;;;-146.48;100.00;60459.00;5346100;27;20027;-71
2021/12/06 03:04:14;;;;;;;28.23;21.88;;;;;;;-146.48;100.00;60459.00;5348453;27;20031;-70
2021/12/06 03:06:47;;;;;;;27.65;20.27;;;;;;;-146.48;100.00;60459.00;5347948;27;20076;-71
2021/12/06 03:09:23;;;;;;;27.13;20.33;;;;;;;-146.48;100.00;60459.00;5347595;27;20031;-70
2021/12/06 03:11:59;;;;;;;26.45;20.58;;;;;;;-146.48;100.00;60459.00;5347447;27;20039;-70
2021/12/06 03:14:34;;;;;;;34.40;20.58;;;;;;;-146.48;100.00;60459.00;5348350;27;20029;-70
2021/12/06 03:17:09;;;;;;;27.48;21.15;;;;;;;-146.48;100.00;60459.00;5347018;27;20039;-70
2021/12/06 03:19:41;;;;;;;28.23;21.35;;;;;;;-146.48;100.00;60459.00;5347493;27;20027;-70
2021/12/06 03:22:14;;;;;;;28.20;21.77;;;;;;;-146.48;100.00;60459.00;5347260;27;20027;-70
2021/12/06 03:24:46;;;;;;;30.45;20.75;;;;;;;-146.48;100.00;60459.00;5347487;27;20360;-70
2021/12/06 03:27:18;;;;;;;33.65;23.08;;;;;;;-146.48;100.00;60459.00;5348116;27;20027;-71
2021/12/06 03:29:50;;;;;;;30.35;22.45;;;;;;;-146.48;100.00;60459.00;5346514;27;20024;-70
2021/12/06 03:32:21;;;;;;;27.33;21.58;;;;;;;-146.48;100.00;60459.00;5347734;27;20030;-70
2021/12/06 03:34:52;;;;;;;27.75;21.27;;;;;;;-146.48;100.00;60459.00;5347430;27;20391;-71
2021/12/06 03:37:23;;;;;;;29.23;20.80;;;;;;;-146.48;100.00;60459.00;5347010;27;20027;-70
2021/12/06 03:39:55;;;;;;;31.00;22.65;;;;;;;-146.48;100.00;60459.00;5347132;27;20038;-71
2021/12/06 03:42:27;;;;;;;31.13;22.13;;;;;;;-146.48;100.00;60459.00;5347636;27;20105;-71
2021/12/06 03:44:59;;;;;;;29.20;20.92;;;;;;;-146.48;100.00;60459.00;5346123;27;20023;-71
2021/12/06 03:47:31;;;;;;;29.58;21.90;;;;;;;-146.48;100.00;60459.00;5347353;27;20058;-71
2021/12/06 03:50:06;;;;;;;30.75;21.90;;;;;;;-146.48;100.00;60459.00;5346166;27;20030;-71
2021/12/06 03:52:38;;;;;;;28.48;21.80;;;;;;;-146.48;100.00;60459.00;5347244;27;20023;-71
2021/12/06 03:55:10;;;;;;;27.95;22.13;;;;;;;-146.48;100.00;60459.00;5347243;27;20088;-71
2021/12/06 03:57:42;;;;;;;30.60;22.00;;;;;;;-146.48;100.00;60459.00;5346064;27;20078;-71
2021/12/06 04:00:14;;;;;;;26.20;20.60;;;;;;;-146.48;100.00;60459.00;5347412;27;20054;-70
2021/12/06 04:02:45;;;;;;;27.58;20.83;;;;;;;-146.48;100.00;60459.00;5346624;27;20489;-70
2021/12/06 04:05:16;;;;;;;29.77;22.42;;;;;;;-146.48;100.00;60459.00;5346341;27;20031;-70
2021/12/06 04:07:48;;;;;;;31.25;22.70;;;;;;;-146.48;100.00;60459.00;5346355;27;20038;-71
2021/12/06 04:10:19;;;;;;;30.05;22.33;;;;;;;-146.48;100.00;60459.00;5347332;27;20102;-71
2021/12/06 04:12:50;;;;;;;31.00;22.50;;;;;;;-146.48;100.00;60459.00;5345178;27;20019;-71
2021/12/06 04:15:22;;;;;;;32.55;22.48;;;;;;;-146.48;100.00;60459.00;5347063;27;20053;-72
2021/12/06 04:17:53;;;;;;;27.23;21.50;;;;;;;-146.48;100.00;60459.00;5346356;27;20027;-71
2021/12/06 04:20:25;;;;;;;32.67;22.75;;;;;;;-146.48;100.00;60459.00;5346064;27;20110;-69
2021/12/06 04:22:57;;;;;;;29.60;21.52;;;;;;;-146.48;100.00;60459.00;5346075;27;20459;-69
2021/12/06 04:25:28;;;;;;;29.35;22.33;;;;;;;-146.48;100.00;60459.00;5346051;27;20111;-69
2021/12/06 04:28:05;;;;;;;29.77;21.35;;;;;;;-146.48;100.00;60459.00;5346094;27;20035;-71
2021/12/06 04:30:38;;;;;;;31.38;21.95;;;;;;;-146.48;100.00;60459.00;5346419;27;20038;-72
2021/12/06 04:33:10;;;;;;;30.23;23.35;;;;;;;-146.48;100.00;60459.00;5345830;27;20023;-71
2021/12/06 04:35:42;;;;;;;32.10;23.83;;;;;;;-146.48;100.00;60459.00;5346198;27;20030;-71
2021/12/06 04:38:14;;;;;;;37.42;26.00;;;;;;;-146.48;100.00;60459.00;5346663;27;20452;-71
2021/12/06 04:40:46;;;;;;;35.00;25.42;;;;;;;-146.48;100.00;60459.00;5344871;27;20042;-69
2021/12/06 04:43:18;;;;;;;31.35;22.38;;;;;;;-146.48;100.00;60459.00;5346312;27;20400;-70
2021/12/06 04:45:49;;;;;;;32.45;23.50;;;;;;;-146.48;100.00;60459.00;5345972;27;20450;-71
2021/12/06 04:48:20;;;;;;;31.30;23.20;;;;;;;-146.48;100.00;60459.00;5345153;27;20052;-70
2021/12/06 04:50:52;;;;;;;31.70;23.92;;;;;;;-146.48;100.00;60459.00;5345574;27;20351;-71
2021/12/06 04:53:28;;;;;;;32.55;23.70;;;;;;;-146.48;100.00;60459.00;5345501;27;20576;-71
2021/12/06 04:56:12;;;;;;;31.40;22.42;;;;;;;-146.48;100.00;60459.00;5345635;27;20030;-71
2021/12/06 04:59:14;;;;;;;29.15;20.25;;;;;;;-146.48;100.00;60459.00;5345456;27;20072;-71
2021/12/06 05:01:47;;;;;;;31.58;20.83;;;;;;;-146.48;100.00;60459.00;5344694;27;20054;-71
2021/12/06 05:04:23;;;;;;;28.80;22.00;;;;;;;-146.48;100.00;60459.00;5345791;27;20084;-71
2021/12/06 05:07:06;;;;;;;31.15;22.20;;;;;;;-146.48;100.00;60459.00;5345505;27;20434;-73
2021/12/06 05:09:41;;;;;;;30.95;21.33;;;;;;;-146.48;100.00;60459.00;5344696;27;20535;-71
2021/12/06 05:12:15;;;;;;;24.85;18.10;;;;;;;-146.48;100.00;60459.00;5345883;27;20023;-71
2021/12/06 05:14:47;;;;;;;26.23;19.95;;;;;;;-146.48;100.00;60459.00;5344434;27;20496;-71
2021/12/06 05:17:18;;;;;;;28.27;21.02;;;;;;;-146.48;100.00;60459.00;5345781;27;20031;-70
2021/12/06 05:19:49;;;;;;;31.40;22.35;;;;;;;-146.48;100.00;60459.00;5345106;27;20494;-71
2021/12/06 05:22:21;;;;;;;30.52;21.30;;;;;;;-146.48;100.00;60459.00;5344961;27;20378;-71
2021/12/06 05:24:53;;;;;;;29.00;20.98;;;;;;;-146.48;100.00;60459.00;5344211;27;20037;-70
2021/12/06 05:27:28;;;;;;;32.78;21.48;;;;;;;-146.48;100.00;60459.00;5345767;27;20031;-70
2021/12/06 05:30:03;;;;;;;31.85;22.55;;;;;;;-146.48;100.00;60459.00;5344383;27;20415;-70
2021/12/06 05:32:36;;;;;;;33.40;23.02;;;;;;;-146.48;100.00;60459.00;5345562;27;20023;-70
2021/12/06 05:35:09;;;;;;;60.42;25.00;;;;;;;-146.48;100.00;60459.00;5345236;27;20023;-70
2021/12/06 05:37:43;;;;;;;116.75;24.38;;;;;;;-146.48;100.00;60459.00;5343887;27;20026;-70
2021/12/06 05:40:19;;;;;;;222.95;25.80;;;;;;;-146.48;100.00;60459.00;5345433;27;20050;-70
2021/12/06 05:42:51;;;;;;;142.30;24.35;;;;;;;-146.48;100.00;60459.00;5343964;27;20470;-70
2021/12/06 05:45:24;;;;;;;166.63;25.00;;;;;;;-146.48;100.00;60459.00;5345506;27;20076;-70
2021/12/06 05:47:56;;;;;;;229.40;25.50;;;;;;;-146.48;100.00;60459.00;5344481;27;20047;-70
2021/12/06 05:50:27;;;;;;;258.25;24.70;;;;;;;-146.48;100.00;60459.00;5344772;27;20023;-70
2021/12/06 05:52:59;;;;;;;244.02;24.52;;;;;;;-146.48;100.00;60459.00;5344788;27;20030;-70
2021/12/06 05:55:30;;;;;;;243.52;24.35;;;;;;;-146.48;100.00;60459.00;5345367;27;20080;-70
2021/12/06 05:58:04;;;;;;;251.68;25.17;;;;;;;-146.48;100.00;60459.00;5343702;28;20027;-70
2021/12/06 06:00:37;;;;;;;272.65;24.85;;;;;;;-146.48;100.00;60459.00;5345034;28;20118;-70
2021/12/06 06:03:10;;;;;;;248.53;25.80;;;;;;;-146.48;100.00;60459.00;5345236;28;20128;-70
2021/12/06 06:05:42;;;;;;;183.57;23.65;;;;;;;-146.48;100.00;60459.00;5343795;27;20027;-70
2021/12/06 06:08:13;;;;;;;248.27;26.48;;;;;;;-146.48;100.00;60459.00;5344771;27;20031;-70
2021/12/06 06:10:47;;;;;;;258.30;27.08;;;;;;;-146.48;100.00;60459.00;5343516;28;20489;-70
2021/12/06 06:13:19;;;;;;;215.88;24.92;;;;;;;-146.48;100.00;60459.00;5345049;28;20019;-70
2021/12/06 06:15:51;;;;;;;170.10;24.85;;;;;;;-146.48;100.00;60459.00;5344359;27;20062;-70
2021/12/06 06:18:22;;;;;;;157.57;22.33;;;;;;;-146.48;100.00;60459.00;5344045;28;20034;-70
2021/12/06 06:20:55;;;;;;;123.28;22.27;;;;;;;-146.48;100.00;60459.00;5344330;28;20019;-70
2021/12/06 06:23:28;;;;;;;139.45;21.90;;;;;;;-146.48;100.00;60459.00;5344730;27;20021;-70
2021/12/06 06:25:59;;;;;;;175.40;24.45;;;;;;;-146.48;100.00;60459.00;5343474;28;20020;-70
2021/12/06 06:28:31;;;;;;;170.48;24.73;;;;;;;-146.48;100.00;60459.00;5344729;28;20359;-70
2021/12/06 06:31:02;;;;;;;139.43;24.67;;;;;;;-146.48;100.00;60459.00;5344233;27;20062;-70
2021/12/06 06:33:34;;;;;;;174.18;24.17;;;;;;;-146.48;100.00;60459.00;5343922;28;20481;-70
2021/12/06 06:36:05;;;;;;;203.48;26.38;;;;;;;-146.48;100.00;60459.00;5346119;27;20027;-70
2021/12/06 06:38:36;;;;;;;181.32;26.35;;;;;;;-146.48;100.00;60459.00;5348267;27;20027;-71
2021/12/06 06:41:08;;;;;;;167.20;25.13;;;;;;;-146.48;100.00;60459.00;5348681;27;20038;-70
2021/12/06 06:43:39;;;;;;;184.35;25.33;;;;;;;-146.48;100.00;60459.00;5348116;27;20084;-70
2021/12/06 06:46:10;;;;;;;171.23;26.27;;;;;;;-146.48;100.00;60459.00;5347725;27;20470;-70
2021/12/06 06:48:41;;;;;;;175.60;26.90;;;;;;;-146.48;100.00;60459.00;5347918;27;20373;-70
2021/12/06 06:51:13;;;;;;;158.70;26.80;;;;;;;-146.48;100.00;60459.00;5348875;27;20493;-70
2021/12/06 06:53:44;;;;;;;177.52;27.23;;;;;;;-146.48;100.00;60459.00;5347326;27;20494;-70
2021/12/06 06:56:16;;;;;;;184.23;27.90;;;;;;;-146.48;100.00;60459.00;5348445;27;20015;-69
2021/12/06 06:58:47;;;;;;;167.10;26.85;;;;;;;-146.48;100.00;60459.00;5347743;27;20055;-70
2021/12/06 07:01:19;;;;;;;172.80;27.63;;;;;;;-146.48;100.00;60459.00;5347642;27;20027;-70
2021/12/06 07:03:53;;;;;;;174.73;26.73;;;;;;;-146.48;100.00;60459.00;5347951;27;20027;-70
2021/12/06 07:06:27;;;;;;;145.88;26.00;;;;;;;-146.48;100.00;60459.00;5348350;27;20030;-70
2021/12/06 07:08:59;;;;;;;148.27;26.73;;;;;;;-146.48;100.00;60459.00;5346701;27;20119;-70
2021/12/06 07:11:31;;;;;;;176.85;29.40;;;;;;;-146.48;100.00;60459.00;5347993;27;20503;-70
2021/12/06 07:14:02;;;;;;;156.50;27.23;;;;;;;-146.48;100.00;60459.00;5346845;27;20084;-70
2021/12/06 07:16:34;;;;;;;187.05;29.08;;;;;;;-146.48;100.00;60459.00;5348020;27;20046;-70
2021/12/06 07:19:05;;;;;;;113.45;27.77;;;;;;;-146.48;100.00;60459.00;5347354;27;20501;-70
2021/12/06 07:21:37;;;;;;;123.40;27.25;;;;;;;-146.48;100.00;60459.00;5346655;27;20543;-70
2021/12/06 07:24:08;;;;;;;82.03;25.50;;;;;;;-146.48;100.00;60459.00;5348163;27;20038;-70
2021/12/06 07:26:40;;;;;;;115.88;27.55;;;;;;;-146.48;100.00;60459.00;5347338;27;20058;-70
2021/12/06 07:29:11;;;;;;;90.88;27.05;;;;;;;-146.48;100.00;60459.00;5346719;27;20385;-71
2021/12/06 07:31:42;;;;;;;58.97;24.83;;;;;;;-146.48;100.00;60459.00;5347067;27;20514;-70
2021/12/06 07:34:14;;;;;;;92.07;25.60;;;;;;;-146.48;100.00;60459.00;5347648;27;20145;-70
2021/12/06 07:36:45;;;;;;;66.43;25.75;;;;;;;-146.48;100.00;60459.00;5346215;27;20027;-70
2021/12/06 07:39:17;;;;;;;65.82;26.73;;;;;;;-146.48;100.00;60459.00;5347825;27;20019;-70
2021/12/06 07:41:48;;;;;;;55.80;25.30;;;;;;;-146.48;100.00;60459.00;5347027;27;20026;-70
2021/12/06 07:44:20;;;;;;;51.25;26.25;;;;;;;-146.48;100.00;60459.00;5346744;27;20034;-70
2021/12/06 07:46:52;;;;;;;44.85;26.05;;;;;;;-146.48;100.00;60459.00;5345879;27;20142;-70
2021/12/06 07:49:23;;;;;;;41.45;27.45;;;;;;;-146.48;100.00;60459.00;5346574;27;20070;-70
2021/12/06 07:51:54;;;;;;;40.70;26.33;;;;;;;-146.48;100.00;60459.00;5347062;27;20039;-70
2021/12/06 07:54:26;;;;;;;50.13;28.70;;;;;;;-146.48;100.00;60459.00;5347468;27;20471;-70
2021/12/06 07:56:58;;;;;;;57.03;31.33;;;;;;;-146.48;100.00;60459.00;5345730;27;20031;-70
2021/12/06 07:59:29;;;;;;;51.30;30.90;;;;;;;-146.48;100.00;60459.00;5347302;27;20162;-69
2021/12/06 08:02:02;;;;;;;50.05;30.77;;;;;;;-146.48;100.00;60459.00;5346621;27;20104;-70
2021/12/06 08:04:34;;;;;;;59.75;34.10;;;;;;;-146.48;100.00;60459.00;5346230;27;20030;-70
2021/12/06 08:07:06;;;;;;;57.40;34.10;;;;;;;-146.48;100.00;60459.00;5346543;27;20485;-70
2021/12/06 08:09:37;;;;;;;65.82;35.63;;;;;;;-146.48;100.00;60459.00;5346202;27;20035;-70
2021/12/06 08:12:09;;;;;;;57.03;33.25;;;;;;;-146.48;100.00;60459.00;5346269;27;20086;-70
2021/12/06 08:14:40;;;;;;;61.60;35.15;;;;;;;-146.48;100.00;60459.00;5346355;27;20045;-71
2021/12/06 08:17:13;;;;;;;58.25;33.20;;;;;;;-146.48;100.00;60459.00;5346101;27;20023;-70
2021/12/06 08:19:44;;;;;;;80.63;34.63;;;;;;;-146.48;100.00;60459.00;5339895;27;20101;-70
2021/12/06 08:22:16;;;;;;;66.85;34.33;;;;;;;-146.48;100.00;60459.00;5345182;27;20110;-70
2021/12/06 08:24:47;;;;;;;63.65;34.67;;;;;;;-146.48;100.00;60459.00;5345060;27;20019;-70
2021/12/06 08:27:18;;;;;;;63.28;35.40;;;;;;;-146.48;100.00;60459.00;5346234;27;20023;-70
2021/12/06 08:29:50;;;;;;;56.47;35.72;;;;;;;-146.48;100.00;60459.00;5345488;27;20061;-70
2021/12/06 08:32:21;;;;;;;59.75;36.50;;;;;;;-146.48;100.00;60459.00;5345344;27;20023;-70
2021/12/06 08:34:52;;;;;;;57.53;33.05;;;;;;;-146.48;100.00;60459.00;5345338;27;20023;-71
2021/12/06 08:37:25;;;;;;;56.70;34.13;;;;;;;-146.48;100.00;60459.00;5346487;27;20034;-70
2021/12/06 08:39:57;;;;;;;57.05;32.78;;;;;;;-146.48;100.00;60459.00;5345006;27;20046;-70
2021/12/06 08:42:28;;;;;;;60.33;33.13;;;;;;;-146.48;100.00;60459.00;5345918;27;20026;-70
2021/12/06 08:44:59;;;;;;;57.88;34.55;;;;;;;-146.48;100.00;60459.00;5345711;27;20027;-70
2021/12/06 08:47:31;;;;;;;59.60;33.88;;;;;;;-146.48;100.00;60459.00;5345142;27;20108;-70
2021/12/06 08:50:05;;;;;;;61.92;34.17;;;;;;;-146.48;100.00;60459.00;5345467;27;20500;-70
2021/12/06 08:52:36;;;;;;;59.15;33.95;;;;;;;-146.48;100.00;60459.00;5344921;27;20107;-71
2021/12/06 08:55:09;;;;;;;56.28;33.30;;;;;;;-146.48;100.00;60459.00;5345767;27;20043;-70
2021/12/06 08:57:40;;;;;;;63.22;34.38;;;;;;;-146.48;100.00;60459.00;5345328;27;20019;-71
2021/12/06 09:00:19;;;;;;;58.70;33.60;;;;;;;-146.48;100.00;60459.00;5345153;27;20373;-70
2021/12/06 09:02:51;;;;;;;58.70;33.58;;;;;;;-146.48;100.00;60459.00;5345187;27;20478;-70
2021/12/06 09:05:28;;;;;;;58.60;33.30;;;;;;;-146.48;100.00;60459.00;5345912;27;20028;-69
2021/12/06 09:08:00;;;;;;;53.15;30.52;;;;;;;-146.48;100.00;60459.00;5344319;27;20030;-70
2021/12/06 09:10:32;;;;;;;52.50;31.30;;;;;;;-146.48;100.00;60459.00;5345926;27;20023;-71
2021/12/06 09:13:05;;;;;;;52.35;30.65;;;;;;;-146.48;100.00;60459.00;5345151;27;20027;-71
2021/12/06 09:15:36;;;;;;;52.80;29.98;;;;;;;-146.48;100.00;60459.00;5344712;27;20015;-71
2021/12/06 09:18:08;;;;;;;51.30;29.80;;;;;;;-146.48;100.00;60459.00;5345158;27;20031;-71
2021/12/06 09:20:42;;;;;;;55.63;29.95;;;;;;;-146.48;100.00;60459.00;5344097;27;20035;-71
2021/12/06 09:23:14;;;;;;;47.95;27.83;;;;;;;-146.48;100.00;60459.00;5345661;27;20022;-71
2021/12/06 09:25:47;;;;;;;50.45;29.55;;;;;;;-146.48;100.00;60459.00;5339367;27;20106;-70
2021/12/06 09:28:18;;;;;;;52.47;27.80;;;;;;;-146.48;100.00;60459.00;5344436;27;20114;-70
2021/12/06 09:30:50;;;;;;;53.10;30.67;;;;;;;-146.48;100.00;60459.00;5344429;27;20110;-70
2021/12/06 09:33:23;;;;;;;55.80;30.67;;;;;;;-146.48;100.00;60459.00;5345421;27;20095;-70
2021/12/06 09:35:58;;;;;;;54.83;30.33;;;;;;;-146.48;100.00;60459.00;5343989;27;20027;-70
2021/12/06 09:38:38;;;;;;;56.58;30.98;;;;;;;-146.48;100.00;60459.00;5345349;27;20022;-70
2021/12/06 09:41:19;;;;;;;52.58;28.98;;;;;;;-146.48;100.00;60459.00;5345268;27;20098;-70
2021/12/06 09:43:54;;;;;;;59.17;30.52;;;;;;;-146.48;100.00;60459.00;5344086;27;20034;-70
2021/12/06 09:46:28;;;;;;;63.17;31.67;;;;;;;-146.48;100.00;60459.00;5344968;27;20058;-71
2021/12/06 09:49:03;;;;;;;71.38;31.83;;;;;;;-146.48;100.00;60459.00;5343749;27;20027;-70
2021/12/06 09:51:36;;;;;;;73.75;35.35;;;;;;;-146.48;100.00;60459.00;5345030;27;20035;-71
2021/12/06 09:54:09;;;;;;;81.53;35.97;;;;;;;-146.48;100.00;60459.00;5345114;27;20035;-70
2021/12/06 09:56:42;;;;;;;95.50;39.40;;;;;;;-146.48;100.00;60459.00;5343799;27;20031;-71
2021/12/06 09:59:18;;;;;;;93.22;40.72;;;;;;;-146.48;100.00;60459.00;5344958;28;20550;-70
2021/12/06 10:02:17;;;;;;;108.47;42.65;;;;;;;-146.48;100.00;60459.00;5344355;28;20019;-70
2021/12/06 10:04:53;;;;;;;121.32;44.35;;;;;;;-146.48;100.00;60459.00;5333006;27;20423;-70
2021/12/06 10:07:26;;;;;;;112.25;40.60;;;;;;;-146.48;100.00;60459.00;5345160;27;20529;-70
2021/12/06 10:09:58;;;;;;;103.05;38.47;;;;;;;-146.48;100.00;60459.00;5343826;27;20770;-70
2021/12/06 10:12:29;;;;;;;107.70;40.92;;;;;;;-146.48;100.00;60459.00;5349190;27;20031;-69
2021/12/06 10:15:03;;;;;;;99.28;38.55;;;;;;;-146.48;100.00;60459.00;5348777;27;20525;-70
2021/12/06 10:17:34;;;;;;;106.10;38.45;;;;;;;-146.48;100.00;60459.00;5348655;27;20062;-70
2021/12/06 10:20:08;;;;;;;69.75;26.17;;;;;;;-146.48;100.00;60459.00;5348434;27;20073;-71
2021/12/06 10:22:39;;;;;;;94.90;36.25;;;;;;;-146.48;100.00;60459.00;5348488;27;20031;-71
2021/12/06 10:25:11;;;;;;;85.00;35.33;;;;;;;-146.48;100.00;60459.00;5348267;27;20023;-71
2021/12/06 10:27:57;;;;;;;82.90;29.77;;;;;;;-146.48;100.00;60459.00;5348253;27;20027;-71
2021/12/06 10:30:29;;;;;;;76.18;31.10;;;;;;;-146.48;100.00;60459.00;5348897;27;20020;-71
2021/12/06 10:33:04;;;;;;;76.68;33.00;;;;;;;-146.48;100.00;60459.00;5347359;27;20155;-71
2021/12/06 10:35:40;;;;;;;69.28;31.27;;;;;;;-146.48;100.00;60459.00;5348667;27;20424;-70
2021/12/06 10:38:22;;;;;;;68.20;30.83;;;;;;;-146.48;100.00;60459.00;5348169;27;20027;-72
2021/12/06 10:40:58;;;;;;;59.28;28.08;;;;;;;-146.48;100.00;60459.00;5348359;27;20063;-72
2021/12/06 10:43:30;;;;;;;54.63;27.23;;;;;;;-146.48;100.00;60459.00;5348623;27;20527;-71
2021/12/06 10:46:04;;;;;;;54.20;28.17;;;;;;;-146.48;100.00;60459.00;5347059;27;20035;-71
2021/12/06 10:48:38;;;;;;;56.90;29.30;;;;;;;-146.48;100.00;60459.00;5348900;27;20072;-70
2021/12/06 10:51:14;;;;;;;56.28;28.48;;;;;;;-146.48;100.00;60459.00;5348731;27;20428;-71
2021/12/06 10:54:00;;;;;;;49.55;26.95;;;;;;;-146.48;100.00;60459.00;5346278;27;20059;-72
2021/12/06 10:56:43;;;;;;;49.47;25.65;;;;;;;-146.48;100.00;60459.00;5348714;27;20023;-71
2021/12/06 10:59:22;;;;;;;44.35;22.77;;;;;;;-146.48;100.00;60459.00;5347975;27;20378;-71
2021/12/06 11:01:57;;;;;;;43.47;23.15;;;;;;;-146.48;100.00;60459.00;5347753;27;20031;-70
2021/12/06 11:04:30;;;;;;;47.95;24.02;;;;;;;-146.48;100.00;60459.00;5348438;27;20029;-70
2021/12/06 11:07:05;;;;;;;45.38;24.40;;;;;;;-146.48;100.00;60459.00;5345902;27;20016;-71
2021/12/06 11:09:40;;;;;;;47.88;25.33;;;;;;;-146.48;100.00;60459.00;5346936;27;20026;-70
2021/12/06 11:12:19;;;;;;;43.03;23.92;;;;;;;-146.48;100.00;60459.00;5347537;27;20026;-70
2021/12/06 11:14:50;;;;;;;38.28;21.52;;;;;;;-146.48;100.00;60459.00;5346923;27;20023;-71
2021/12/06 11:17:21;;;;;;;39.42;20.58;;;;;;;-146.48;100.00;60459.00;5348349;27;20031;-70
2021/12/06 11:19:54;;;;;;;42.45;21.05;;;;;;;-146.48;100.00;60459.00;5347665;27;20027;-71
2021/12/06 11:22:26;;;;;;;40.05;18.95;;;;;;;-146.48;100.00;60459.00;5346064;27;20023;-71
2021/12/06 11:24:58;;;;;;;42.33;20.98;;;;;;;-146.48;100.00;60459.00;5345172;27;20028;-70
2021/12/06 11:27:37;;;;;;;36.13;19.55;;;;;;;-146.48;100.00;60459.00;5345955;27;20023;-71
2021/12/06 11:30:11;;;;;;;;;;;;;;;-146.48;100.00;60459.00;5346803;27;20125;-72